createdAt,value
2023-01-26T00:01:00.213Z,23.90
2023-01-26T00:03:27.172Z,22.40
2023-01-26T00:05:53.711Z,23.30
2023-01-26T00:08:20.226Z,21.40
2023-01-26T00:10:50.384Z,19.00
2023-01-26T00:13:18.876Z,19.30
2023-01-26T00:15:45.521Z,21.97
2023-01-26T00:18:12.105Z,18.30
2023-01-26T00:20:38.621Z,14.37
2023-01-26T00:23:05.180Z,22.70
2023-01-26T00:25:31.789Z,20.33
2023-01-26T00:27:58.272Z,19.83
2023-01-26T00:30:24.840Z,18.70
2023-01-26T00:32:51.367Z,20.80
2023-01-26T00:35:17.923Z,19.23
2023-01-26T00:37:44.462Z,17.53
2023-01-26T00:40:12.630Z,20.83
2023-01-26T00:42:39.993Z,20.27
2023-01-26T00:45:06.719Z,19.87
2023-01-26T00:47:33.267Z,20.60
2023-01-26T00:49:59.746Z,20.97
2023-01-26T00:52:26.243Z,21.70
2023-01-26T00:54:52.725Z,21.87
2023-01-26T00:57:19.230Z,20.90
2023-01-26T00:59:45.801Z,22.60
2023-01-26T01:02:12.407Z,21.67
2023-01-26T01:04:38.901Z,22.07
2023-01-26T01:07:05.492Z,21.90
2023-01-26T01:09:31.976Z,25.63
2023-01-26T01:11:58.467Z,20.90
2023-01-26T01:14:25.148Z,26.83
2023-01-26T01:16:51.667Z,24.60
2023-01-26T01:19:18.224Z,24.67
2023-01-26T01:21:44.873Z,26.67
2023-01-26T01:24:11.737Z,25.07
2023-01-26T01:26:38.556Z,21.13
2023-01-26T01:29:05.155Z,27.13
2023-01-26T01:31:31.718Z,24.07
2023-01-26T01:33:58.368Z,22.57
2023-01-26T01:36:25.000Z,25.97
2023-01-26T01:38:51.580Z,32.43
2023-01-26T01:41:19.626Z,27.80
2023-01-26T01:43:46.211Z,32.00
2023-01-26T01:46:32.374Z,29.97
2023-01-26T01:48:59.963Z,33.77
2023-01-26T01:51:30.000Z,29.47
2023-01-26T01:53:56.712Z,33.27
2023-01-26T01:56:23.553Z,30.30
2023-01-26T01:58:51.274Z,31.40
2023-01-26T02:01:17.917Z,36.67
2023-01-26T02:03:44.846Z,30.90
2023-01-26T02:06:15.227Z,35.40
2023-01-26T02:08:48.676Z,36.07
2023-01-26T02:11:17.073Z,36.60
2023-01-26T02:13:43.845Z,34.87
2023-01-26T02:16:10.681Z,38.53
2023-01-26T02:18:37.200Z,35.87
2023-01-26T02:21:04.353Z,28.10
2023-01-26T02:23:33.950Z,33.47
2023-01-26T02:26:06.658Z,28.70
2023-01-26T02:28:33.198Z,29.23
2023-01-26T02:30:59.889Z,29.27
2023-01-26T02:33:27.444Z,27.63
2023-01-26T02:35:54.071Z,29.30
2023-01-26T02:38:21.617Z,29.03
2023-01-26T02:40:55.409Z,29.93
2023-01-26T02:43:22.364Z,29.87
2023-01-26T02:45:48.840Z,26.83
2023-01-26T02:48:35.300Z,22.93
2023-01-26T02:51:01.788Z,28.37
2023-01-26T02:53:28.300Z,28.23
2023-01-26T02:55:54.801Z,27.87
2023-01-26T02:58:21.340Z,34.60
2023-01-26T03:00:47.916Z,25.40
2023-01-26T03:03:45.232Z,28.10
2023-01-26T03:06:12.249Z,30.37
2023-01-26T03:08:38.880Z,28.83
2023-01-26T03:11:05.888Z,26.77
2023-01-26T03:13:32.511Z,31.47
2023-01-26T03:16:02.895Z,31.53
2023-01-26T03:18:48.209Z,27.67
2023-01-26T03:21:34.556Z,26.37
2023-01-26T03:24:19.672Z,27.30
2023-01-26T03:27:04.567Z,21.43
2023-01-26T03:29:31.225Z,26.37
2023-01-26T03:31:59.433Z,26.90
2023-01-26T03:34:26.037Z,23.07
2023-01-26T03:36:52.549Z,21.10
2023-01-26T03:39:37.660Z,23.37
2023-01-26T03:42:22.986Z,22.70
2023-01-26T03:45:08.244Z,17.00
2023-01-26T03:47:53.502Z,23.07
2023-01-26T03:50:38.684Z,19.87
2023-01-26T03:53:36.799Z,23.87
2023-01-26T03:56:18.142Z,23.00
2023-01-26T03:58:48.487Z,21.13
2023-01-26T04:01:21.112Z,23.17
2023-01-26T04:04:06.878Z,22.13
2023-01-26T04:06:52.289Z,21.13
2023-01-26T04:09:18.799Z,21.53
2023-01-26T04:11:45.387Z,20.50
2023-01-26T04:14:36.356Z,23.43
2023-01-26T04:17:34.580Z,24.57
2023-01-26T04:20:19.674Z,24.67
2023-01-26T04:22:46.213Z,24.13
2023-01-26T04:25:14.126Z,23.90
2023-01-26T04:27:41.025Z,23.77
2023-01-26T04:30:08.341Z,23.13
2023-01-26T04:32:35.132Z,23.70
2023-01-26T04:35:01.665Z,23.23
2023-01-26T04:37:28.150Z,21.33
2023-01-26T04:39:54.696Z,24.57
2023-01-26T04:42:21.214Z,26.73
2023-01-26T04:44:47.702Z,27.13
2023-01-26T04:47:14.243Z,29.57
2023-01-26T04:49:40.940Z,30.77
2023-01-26T04:52:07.406Z,27.47
2023-01-26T04:54:33.947Z,34.23
2023-01-26T04:57:00.430Z,30.17
2023-01-26T04:59:27.410Z,33.53
2023-01-26T05:01:54.002Z,36.20
2023-01-26T05:04:20.821Z,34.53
2023-01-26T05:06:47.508Z,32.33
2023-01-26T05:09:14.286Z,31.67
2023-01-26T05:11:41.142Z,38.87
2023-01-26T05:14:07.747Z,34.43
2023-01-26T05:16:34.321Z,41.40
2023-01-26T05:19:00.807Z,38.17
2023-01-26T05:21:28.302Z,37.90
2023-01-26T05:23:55.032Z,39.00
2023-01-26T05:26:21.722Z,33.17
2023-01-26T05:28:48.182Z,34.60
2023-01-26T05:31:14.684Z,34.73
2023-01-26T05:33:41.425Z,35.77
2023-01-26T05:36:08.263Z,34.90
2023-01-26T05:38:35.030Z,42.60
2023-01-26T05:41:02.081Z,57.10
2023-01-26T05:43:28.681Z,56.80
2023-01-26T05:45:55.285Z,46.93
2023-01-26T05:48:21.855Z,46.87
2023-01-26T05:50:48.413Z,58.33
2023-01-26T05:53:15.342Z,51.20
2023-01-26T05:55:41.870Z,48.50
2023-01-26T05:58:08.414Z,49.00
2023-01-26T06:00:34.951Z,45.27
2023-01-26T06:03:01.546Z,41.63
2023-01-26T06:05:28.028Z,40.83
2023-01-26T06:07:54.589Z,37.43
2023-01-26T06:10:21.124Z,38.57
2023-01-26T06:12:47.719Z,42.03
2023-01-26T06:15:14.278Z,34.90
2023-01-26T06:17:41.265Z,39.37
2023-01-26T06:20:08.301Z,37.43
2023-01-26T06:22:34.774Z,38.73
2023-01-26T06:25:01.365Z,33.40
2023-01-26T06:27:27.956Z,28.43
2023-01-26T06:29:54.535Z,34.37
2023-01-26T06:32:21.139Z,32.43
2023-01-26T06:34:47.667Z,35.60
2023-01-26T06:37:14.146Z,30.03
2023-01-26T06:39:41.692Z,33.47
2023-01-26T06:42:08.553Z,32.40
2023-01-26T06:44:35.057Z,32.60
2023-01-26T06:47:01.564Z,29.90
2023-01-26T06:49:28.234Z,33.47
2023-01-26T06:52:13.713Z,31.87
2023-01-26T06:54:40.258Z,36.37
2023-01-26T06:57:08.157Z,38.07
2023-01-26T06:59:37.802Z,36.90
2023-01-26T07:02:04.364Z,31.87
2023-01-26T07:04:30.920Z,36.33
2023-01-26T07:06:57.419Z,37.03
2023-01-26T07:09:23.923Z,42.93
2023-01-26T07:11:50.651Z,37.57
2023-01-26T07:14:17.130Z,38.37
2023-01-26T07:16:43.657Z,35.43
2023-01-26T07:19:10.205Z,35.20
2023-01-26T07:21:39.219Z,35.43
2023-01-26T07:24:05.842Z,36.23
2023-01-26T07:26:32.439Z,37.10
2023-01-26T07:28:58.920Z,35.60
2023-01-26T07:31:25.519Z,33.63
2023-01-26T07:33:52.029Z,29.80
2023-01-26T07:36:18.534Z,36.57
2023-01-26T07:38:45.054Z,30.70
2023-01-26T07:41:11.972Z,34.60
2023-01-26T07:43:38.573Z,34.53
2023-01-26T07:46:05.373Z,36.23
2023-01-26T07:48:32.421Z,35.03
2023-01-26T07:51:00.121Z,32.93
2023-01-26T07:53:29.305Z,33.13
2023-01-26T07:56:06.078Z,30.67
2023-01-26T07:58:32.786Z,37.83
2023-01-26T08:01:25.826Z,31.80
2023-01-26T08:03:53.688Z,29.60
2023-01-26T08:06:20.478Z,32.97
2023-01-26T08:08:51.163Z,29.87
2023-01-26T08:11:18.543Z,29.60
2023-01-26T08:13:45.044Z,31.60
2023-01-26T08:16:12.798Z,30.63
2023-01-26T08:18:39.805Z,29.67
2023-01-26T08:21:06.368Z,33.33
2023-01-26T08:23:32.864Z,31.63
2023-01-26T08:26:05.978Z,28.33
2023-01-26T08:28:32.571Z,31.43
2023-01-26T08:31:05.985Z,29.60
2023-01-26T08:33:32.643Z,32.50
2023-01-26T08:36:02.758Z,29.30
2023-01-26T08:38:30.115Z,32.90
2023-01-26T08:40:56.617Z,31.17
2023-01-26T08:43:23.148Z,36.00
2023-01-26T08:45:49.686Z,28.70
2023-01-26T08:48:16.249Z,34.00
2023-01-26T08:50:42.742Z,33.97
2023-01-26T08:53:09.249Z,32.37
2023-01-26T08:55:35.984Z,34.40
2023-01-26T08:58:02.536Z,34.10
2023-01-26T09:00:29.101Z,33.85
2023-01-26T09:03:02.396Z,34.47
2023-01-26T09:05:31.689Z,31.40
2023-01-26T09:07:58.210Z,30.90
2023-01-26T09:10:24.862Z,30.37
2023-01-26T09:12:51.534Z,32.80
2023-01-26T09:15:18.037Z,29.90
2023-01-26T09:17:44.520Z,33.57
2023-01-26T09:20:11.964Z,29.27
2023-01-26T09:22:38.653Z,32.07
2023-01-26T09:25:05.529Z,31.27
2023-01-26T09:27:32.086Z,34.43
2023-01-26T09:29:58.652Z,30.83
2023-01-26T09:32:25.227Z,29.20
2023-01-26T09:34:51.803Z,31.60
2023-01-26T09:37:18.307Z,32.43
2023-01-26T09:39:44.846Z,28.60
2023-01-26T09:42:17.586Z,33.43
2023-01-26T09:44:46.375Z,34.27
2023-01-26T09:47:24.379Z,34.93
2023-01-26T09:49:56.774Z,30.03
2023-01-26T09:52:26.703Z,31.13
2023-01-26T09:54:53.850Z,33.03
2023-01-26T09:57:25.212Z,32.63
2023-01-26T09:59:54.157Z,29.40
2023-01-26T10:02:23.467Z,29.07
2023-01-26T10:04:51.378Z,30.20
2023-01-26T10:07:17.993Z,34.27
2023-01-26T10:09:48.019Z,32.60
2023-01-26T10:12:17.612Z,28.67
2023-01-26T10:14:56.460Z,32.27
2023-01-26T10:17:27.165Z,33.03
2023-01-26T10:20:07.597Z,33.83
2023-01-26T10:22:40.509Z,33.90
2023-01-26T10:25:20.715Z,32.23
2023-01-26T10:27:47.230Z,34.90
2023-01-26T10:30:14.885Z,29.17
2023-01-26T10:32:42.278Z,34.60
2023-01-26T10:35:13.758Z,29.47
2023-01-26T10:37:40.418Z,31.47
2023-01-26T10:40:10.690Z,32.70
2023-01-26T10:42:37.334Z,26.37
2023-01-26T10:45:30.387Z,28.67
2023-01-26T10:48:15.931Z,31.27
2023-01-26T10:50:42.483Z,30.63
2023-01-26T10:53:14.093Z,28.17
2023-01-26T10:55:40.636Z,28.40
2023-01-26T10:58:14.653Z,33.20
2023-01-26T11:00:41.119Z,36.10
2023-01-26T11:03:13.789Z,31.80
2023-01-26T11:05:40.484Z,31.57
2023-01-26T11:08:26.996Z,31.50
2023-01-26T11:10:57.399Z,28.63
2023-01-26T11:13:24.077Z,28.17
2023-01-26T11:15:53.113Z,26.90
2023-01-26T11:18:26.101Z,25.63
2023-01-26T11:21:00.311Z,26.17
2023-01-26T11:23:29.838Z,27.33
2023-01-26T11:26:15.323Z,27.93
2023-01-26T11:28:52.124Z,28.30
2023-01-26T11:31:18.689Z,26.27
2023-01-26T11:34:05.519Z,29.20
2023-01-26T11:36:37.847Z,29.47
2023-01-26T11:39:14.988Z,29.43
2023-01-26T11:41:53.912Z,26.53
2023-01-26T11:44:39.390Z,31.83
2023-01-26T11:47:09.322Z,27.93
2023-01-26T11:49:38.909Z,30.33
2023-01-26T11:52:28.030Z,29.70
2023-01-26T11:55:00.271Z,27.73
2023-01-26T11:57:33.046Z,27.67
2023-01-26T12:00:05.960Z,30.30
2023-01-26T12:02:38.821Z,29.83
2023-01-26T12:05:25.095Z,27.33
2023-01-26T12:07:54.796Z,27.83
2023-01-26T12:10:26.287Z,25.87
2023-01-26T12:12:54.946Z,28.10
2023-01-26T12:15:27.675Z,28.10
2023-01-26T12:18:00.619Z,28.83
2023-01-26T12:20:30.159Z,29.70
2023-01-26T12:23:06.587Z,29.30
2023-01-26T12:25:34.656Z,29.57
2023-01-26T12:28:20.251Z,27.67
2023-01-26T12:30:55.982Z,28.13
2023-01-26T12:33:22.607Z,26.57
2023-01-26T12:35:50.884Z,30.57
2023-01-26T12:38:18.662Z,32.70
2023-01-26T12:40:45.202Z,29.53
2023-01-26T12:43:16.542Z,27.67
2023-01-26T12:45:43.175Z,26.97
2023-01-26T12:48:17.787Z,25.77
2023-01-26T12:50:44.472Z,27.40
2023-01-26T12:53:10.957Z,28.57
2023-01-26T12:55:40.776Z,27.90
2023-01-26T12:58:12.179Z,28.17
2023-01-26T13:00:39.028Z,28.23
2023-01-26T13:03:15.765Z,26.03
2023-01-26T13:06:00.061Z,29.33
2023-01-26T13:08:32.899Z,29.17
2023-01-26T13:10:59.931Z,27.83
2023-01-26T13:13:52.276Z,29.57
2023-01-26T13:16:18.769Z,27.07
2023-01-26T13:18:48.765Z,27.73
2023-01-26T13:21:34.248Z,27.13
2023-01-26T13:24:00.893Z,26.30
2023-01-26T13:26:30.594Z,28.73
2023-01-26T13:29:17.091Z,31.43
2023-01-26T13:31:43.661Z,29.73
2023-01-26T13:34:10.176Z,37.40
2023-01-26T13:36:37.068Z,32.40
2023-01-26T13:39:05.549Z,35.67
2023-01-26T13:41:32.069Z,30.67
2023-01-26T13:44:13.554Z,30.60
2023-01-26T13:46:41.018Z,31.87
2023-01-26T13:49:21.931Z,32.43
2023-01-26T13:51:51.516Z,29.03
2023-01-26T13:54:18.083Z,31.37
2023-01-26T13:56:59.709Z,31.43
2023-01-26T13:59:26.260Z,36.47
2023-01-26T14:01:53.478Z,37.97
2023-01-26T14:04:21.614Z,35.90
2023-01-26T14:06:51.331Z,37.73
2023-01-26T14:09:17.871Z,38.67
2023-01-26T14:11:44.561Z,38.67
2023-01-26T14:14:19.765Z,37.00
2023-01-26T14:16:46.727Z,36.27
2023-01-26T14:19:17.136Z,34.70
2023-01-26T14:21:53.698Z,37.07
2023-01-26T14:24:25.080Z,38.00
2023-01-26T14:26:51.800Z,33.27
2023-01-26T14:29:19.879Z,34.20
2023-01-26T14:31:47.320Z,32.97
2023-01-26T14:34:23.839Z,36.23
2023-01-26T14:37:04.900Z,38.03
2023-01-26T14:39:31.401Z,39.33
2023-01-26T14:41:57.943Z,39.80
2023-01-26T14:44:24.519Z,37.37
2023-01-26T14:46:59.397Z,40.03
2023-01-26T14:49:42.992Z,36.07
2023-01-26T14:52:28.702Z,37.53
2023-01-26T14:54:58.794Z,39.17
2023-01-26T14:57:26.182Z,39.33
2023-01-26T14:59:59.948Z,33.37
2023-01-26T15:02:44.585Z,40.10
2023-01-26T15:05:21.419Z,34.37
2023-01-26T15:08:09.422Z,32.90
2023-01-26T15:10:37.148Z,38.37
2023-01-26T15:13:05.859Z,36.87
2023-01-26T15:15:36.615Z,39.60
2023-01-26T15:18:21.452Z,38.07
2023-01-26T15:20:47.983Z,38.70
2023-01-26T15:23:24.473Z,38.60
2023-01-26T15:25:51.263Z,42.50
2023-01-26T15:28:23.565Z,46.17
2023-01-26T15:30:50.812Z,49.70
2023-01-26T15:33:36.077Z,50.13
2023-01-26T15:36:02.665Z,52.50
2023-01-26T15:38:29.294Z,50.67
2023-01-26T15:40:57.706Z,50.33
2023-01-26T15:43:26.016Z,45.60
2023-01-26T15:45:53.475Z,46.37
2023-01-26T15:48:20.169Z,46.80
2023-01-26T15:50:47.209Z,49.53
2023-01-26T15:53:18.629Z,54.57
2023-01-26T15:55:45.411Z,53.30
2023-01-26T15:58:12.228Z,54.77
2023-01-26T16:00:38.916Z,57.57
2023-01-26T16:03:07.361Z,54.73
2023-01-26T16:05:33.961Z,54.63
2023-01-26T16:08:00.759Z,54.17
2023-01-26T16:10:27.329Z,55.43
2023-01-26T16:12:54.174Z,54.37
2023-01-26T16:15:23.268Z,47.97
2023-01-26T16:17:49.914Z,46.93
2023-01-26T16:20:16.691Z,46.97
2023-01-26T16:22:43.367Z,43.17
2023-01-26T16:25:17.416Z,46.60
2023-01-26T16:27:44.029Z,46.13
2023-01-26T16:30:10.881Z,47.17
2023-01-26T16:32:37.419Z,49.20
2023-01-26T16:35:09.878Z,53.03
2023-01-26T16:37:36.812Z,53.23
2023-01-26T16:40:03.803Z,52.13
2023-01-26T16:42:30.460Z,59.13
2023-01-26T16:44:57.616Z,54.67
2023-01-26T16:47:24.153Z,55.67
2023-01-26T16:49:50.794Z,57.70
2023-01-26T16:52:17.311Z,54.70
2023-01-26T16:54:45.781Z,57.97
2023-01-26T16:57:12.338Z,50.37
2023-01-26T16:59:40.224Z,49.60
2023-01-26T17:02:11.156Z,47.77
2023-01-26T17:04:37.729Z,46.43
2023-01-26T17:07:04.273Z,50.23
2023-01-26T17:09:30.843Z,52.43
2023-01-26T17:11:57.436Z,59.23
2023-01-26T17:14:24.557Z,60.93
2023-01-26T17:16:51.165Z,59.07
2023-01-26T17:19:17.664Z,55.33
2023-01-26T17:21:44.802Z,52.80
2023-01-26T17:24:11.626Z,51.97
2023-01-26T17:26:38.245Z,48.50
2023-01-26T17:29:04.740Z,47.30
2023-01-26T17:31:31.786Z,49.53
2023-01-26T17:33:58.359Z,51.50
2023-01-26T17:36:24.959Z,53.20
2023-01-26T17:38:51.559Z,63.47
2023-01-26T17:41:18.090Z,55.57
2023-01-26T17:43:44.781Z,60.10
2023-01-26T17:46:15.388Z,62.27
2023-01-26T17:48:44.774Z,57.43
2023-01-26T17:51:16.681Z,63.20
2023-01-26T17:53:44.823Z,61.67
2023-01-26T17:56:12.563Z,56.40
2023-01-26T17:58:39.225Z,57.80
2023-01-26T18:01:06.297Z,54.43
2023-01-26T18:03:33.082Z,50.60
2023-01-26T18:06:00.512Z,58.87
2023-01-26T18:08:27.082Z,52.13
2023-01-26T18:10:58.724Z,58.97
2023-01-26T18:13:27.531Z,53.03
2023-01-26T18:15:55.064Z,51.93
2023-01-26T18:18:25.005Z,49.30
2023-01-26T18:20:51.699Z,55.90
2023-01-26T18:23:18.540Z,58.17
2023-01-26T18:25:45.142Z,63.60
2023-01-26T18:28:12.121Z,58.37
2023-01-26T18:30:38.802Z,63.87
2023-01-26T18:33:05.545Z,66.97
2023-01-26T18:35:32.139Z,68.53
2023-01-26T18:37:58.901Z,68.97
2023-01-26T18:40:25.521Z,65.87
2023-01-26T18:42:55.463Z,66.03
2023-01-26T18:45:22.104Z,67.20
2023-01-26T18:47:49.182Z,65.10
2023-01-26T18:50:18.682Z,62.97
2023-01-26T18:52:45.233Z,62.80
2023-01-26T18:55:12.283Z,67.50
2023-01-26T18:57:39.021Z,67.23
2023-01-26T19:00:06.420Z,74.93
2023-01-26T19:02:33.873Z,76.87
2023-01-26T19:05:00.640Z,84.80
2023-01-26T19:07:27.153Z,88.60
2023-01-26T19:09:53.727Z,106.05
2023-01-26T19:12:20.363Z,100.87
2023-01-26T19:14:46.927Z,101.87
2023-01-26T19:17:13.708Z,110.33
2023-01-26T19:19:42.182Z,107.00
2023-01-26T19:22:09.005Z,110.93
2023-01-26T19:24:35.791Z,108.20
2023-01-26T19:27:03.789Z,102.17
2023-01-26T19:29:30.322Z,92.57
2023-01-26T19:31:56.920Z,86.20
2023-01-26T19:34:23.566Z,84.73
2023-01-26T19:36:50.069Z,83.17
2023-01-26T19:39:16.608Z,87.57
2023-01-26T19:41:44.330Z,78.17
2023-01-26T19:44:10.837Z,89.17
2023-01-26T19:46:37.411Z,84.23
2023-01-26T19:49:04.982Z,78.70
2023-01-26T19:51:33.204Z,84.10
2023-01-26T19:53:59.870Z,78.37
2023-01-26T19:56:27.754Z,69.70
2023-01-26T19:58:56.657Z,66.40
2023-01-26T20:01:24.109Z,64.37
2023-01-26T20:03:52.179Z,66.60
2023-01-26T20:06:20.840Z,59.30
2023-01-26T20:08:47.658Z,60.27
2023-01-26T20:11:14.272Z,55.13
2023-01-26T20:13:40.933Z,50.70
2023-01-26T20:16:08.323Z,49.63
2023-01-26T20:18:35.032Z,51.77
2023-01-26T20:21:01.612Z,53.87
2023-01-26T20:23:28.315Z,52.23
2023-01-26T20:26:05.056Z,51.80
2023-01-26T20:28:31.665Z,52.40
2023-01-26T20:31:03.705Z,53.43
2023-01-26T20:33:30.342Z,57.57
2023-01-26T20:35:56.911Z,56.50
2023-01-26T20:38:23.430Z,62.37
2023-01-26T20:40:50.068Z,58.87
2023-01-26T20:43:16.671Z,56.50
2023-01-26T20:45:43.263Z,59.53
2023-01-26T20:48:09.859Z,50.93
2023-01-26T20:50:40.233Z,49.63
2023-01-26T20:53:10.070Z,49.83
2023-01-26T20:55:36.605Z,54.40
2023-01-26T20:58:04.443Z,46.47
2023-01-26T21:00:33.158Z,48.13
2023-01-26T21:02:59.704Z,42.43
2023-01-26T21:05:26.272Z,37.73
2023-01-26T21:07:54.008Z,34.40
2023-01-26T21:10:20.598Z,33.20
2023-01-26T21:12:47.380Z,33.77
2023-01-26T21:15:13.944Z,37.23
2023-01-26T21:17:40.537Z,33.80
2023-01-26T21:20:08.443Z,37.07
2023-01-26T21:22:35.055Z,36.83
2023-01-26T21:25:01.584Z,38.57
2023-01-26T21:27:28.226Z,37.93
2023-01-26T21:29:54.747Z,36.47
2023-01-26T21:32:21.264Z,35.20
2023-01-26T21:34:47.931Z,39.97
2023-01-26T21:37:14.560Z,36.13
2023-01-26T21:39:41.110Z,36.83
2023-01-26T21:42:07.662Z,42.50
2023-01-26T21:44:54.213Z,39.87
2023-01-26T21:47:20.765Z,38.10
2023-01-26T21:49:47.865Z,41.67
2023-01-26T21:52:33.137Z,41.33
2023-01-26T21:54:59.720Z,56.30
2023-01-26T21:57:44.950Z,42.70
2023-01-26T22:00:12.066Z,46.10
2023-01-26T22:02:40.438Z,50.80
2023-01-26T22:05:07.513Z,48.17
2023-01-26T22:07:37.388Z,60.40
2023-01-26T22:10:06.081Z,51.70
2023-01-26T22:12:34.194Z,49.30
2023-01-26T22:15:03.029Z,48.60
2023-01-26T22:17:32.563Z,57.00
2023-01-26T22:19:59.629Z,51.10
2023-01-26T22:22:26.222Z,61.40
2023-01-26T22:24:55.807Z,61.17
2023-01-26T22:27:22.782Z,58.83
2023-01-26T22:29:49.555Z,56.33
2023-01-26T22:32:16.188Z,65.83
2023-01-26T22:34:42.987Z,58.77
2023-01-26T22:37:09.528Z,59.97
2023-01-26T22:39:36.089Z,69.40
2023-01-26T22:42:02.607Z,81.23
2023-01-26T22:44:29.169Z,85.10
2023-01-26T22:46:55.900Z,78.77
2023-01-26T22:49:22.478Z,66.50
2023-01-26T22:51:49.084Z,64.90
2023-01-26T22:54:15.707Z,64.37
2023-01-26T22:56:42.364Z,63.97
2023-01-26T22:59:09.260Z,62.77
2023-01-26T23:01:35.756Z,62.17
2023-01-26T23:04:02.423Z,72.60
2023-01-26T23:06:29.058Z,75.07
2023-01-26T23:08:55.660Z,67.70
2023-01-26T23:11:24.000Z,64.43
2023-01-26T23:13:50.937Z,61.63
2023-01-26T23:16:17.659Z,59.83
2023-01-26T23:18:44.326Z,64.97
2023-01-26T23:21:10.887Z,70.37
2023-01-26T23:23:37.753Z,79.90
2023-01-26T23:26:04.383Z,74.30
2023-01-26T23:28:32.308Z,70.90
2023-01-26T23:30:59.335Z,59.93
2023-01-26T23:33:26.449Z,66.33
2023-01-26T23:35:53.147Z,60.00
2023-01-26T23:38:23.372Z,64.83
2023-01-26T23:40:50.240Z,62.37
2023-01-26T23:43:17.500Z,63.47
2023-01-26T23:45:44.775Z,65.10
2023-01-26T23:48:11.561Z,62.10
2023-01-26T23:50:38.064Z,65.60
2023-01-26T23:53:04.665Z,69.13
2023-01-26T23:55:31.252Z,61.70
2023-01-26T23:57:57.839Z,66.10
